Orbital elements of COSMOS 2344 DEB
| Launched | 5 June 1997 |
| Flight ended | – |
| Launch site | Tyuratam Missile and Space Center, Kazakhstan (Also known as Baikonur Cosmodrome) |
| Owner | Commonwealth of Independent States (former USSR) |
| NORAD ID | 24843 |
| Date fetched |
Epoch osculation |
Inc. [°] |
Ecc. | RA asc node [hr] |
Arg Peri. [°] |
Mean anom [°] |
Mean motion [rev/day] |
Abs. mag |
| Date fetched |
Epoch osculation |
Inc. [°] |
Ecc. | RA asc node [hr] |
Arg Peri. [°] |
Mean anom [°] |
Mean motion [rev/day] |
Abs. mag |
| 2026 May 06 17:57 | 2026 May 05 10:55:27 | 63.3179 | 0.10733 | 16.2193 | 45.3051 | 14.5343 | 11.10060 | 7.743 |
| 2026 May 05 17:57 | 2026 May 05 10:55:27 | 63.3179 | 0.10733 | 16.2193 | 45.3051 | 14.5343 | 11.10060 | 7.743 |
| 2026 May 04 17:57 | 2026 Apr 30 14:18:32 | 63.3180 | 0.10732 | 16.7645 | 45.2562 | 14.5343 | 11.10060 | 7.743 |
| 2026 May 03 17:57 | 2026 Apr 30 14:18:32 | 63.3180 | 0.10732 | 16.7645 | 45.2562 | 14.5343 | 11.10060 | 7.743 |
| 2026 May 02 17:57 | 2026 Apr 30 14:18:32 | 63.3180 | 0.10732 | 16.7645 | 45.2562 | 14.5343 | 11.10060 | 7.743 |
| 2026 May 01 17:56 | 2026 Apr 30 14:18:32 | 63.3180 | 0.10732 | 16.7645 | 45.2562 | 14.5343 | 11.10060 | 7.743 |
| 2026 Apr 30 17:56 | 2026 Apr 30 14:18:32 | 63.3180 | 0.10732 | 16.7645 | 45.2562 | 14.5343 | 11.10060 | 7.743 |
| 2026 Apr 29 17:57 | 2026 Apr 24 13:23:44 | 63.3181 | 0.10731 | 17.4421 | 45.1939 | 14.5343 | 11.10060 | 7.743 |
| 2026 Apr 28 17:56 | 2026 Apr 24 13:23:44 | 63.3181 | 0.10731 | 17.4421 | 45.1939 | 14.5343 | 11.10060 | 7.743 |
| 2026 Apr 27 17:58 | 2026 Apr 24 13:23:44 | 63.3181 | 0.10731 | 17.4421 | 45.1939 | 14.5343 | 11.10060 | 7.743 |
| 2026 Apr 26 17:58 | 2026 Apr 24 13:23:44 | 63.3181 | 0.10731 | 17.4421 | 45.1939 | 14.5343 | 11.10060 | 7.743 |
| 2026 Apr 25 17:58 | 2026 Apr 24 13:23:44 | 63.3181 | 0.10731 | 17.4421 | 45.1939 | 14.5343 | 11.10060 | 7.743 |
| 2026 Apr 24 17:59 | 2026 Apr 24 13:23:44 | 63.3181 | 0.10731 | 17.4421 | 45.1939 | 14.5343 | 11.10060 | 7.743 |
| 2026 Apr 23 17:57 | 2026 Apr 19 12:15:42 | 63.3180 | 0.10731 | 18.0085 | 45.1410 | 14.5343 | 11.10060 | 7.743 |
| 2026 Apr 22 17:57 | 2026 Apr 19 12:15:42 | 63.3180 | 0.10731 | 18.0085 | 45.1410 | 14.5343 | 11.10060 | 7.743 |
| 2026 Apr 21 17:57 | 2026 Apr 19 12:15:42 | 63.3180 | 0.10731 | 18.0085 | 45.1410 | 14.5343 | 11.10060 | 7.743 |
| 2026 Apr 20 17:57 | 2026 Apr 19 12:15:42 | 63.3180 | 0.10731 | 18.0085 | 45.1410 | 14.5343 | 11.10060 | 7.743 |
| 2026 Apr 19 17:58 | 2026 Apr 19 12:15:42 | 63.3180 | 0.10731 | 18.0085 | 45.1410 | 14.5343 | 11.10060 | 7.743 |
| 2026 Apr 18 17:56 | 2026 Apr 13 05:30:58 | 63.3182 | 0.10731 | 18.7134 | 45.0717 | 14.5343 | 11.10060 | 7.743 |
| 2026 Apr 16 17:57 | 2026 Apr 13 05:30:58 | 63.3182 | 0.10731 | 18.7134 | 45.0717 | 14.5343 | 11.10060 | 7.743 |
| 2026 Apr 14 17:57 | 2026 Apr 13 05:30:58 | 63.3182 | 0.10731 | 18.7134 | 45.0717 | 14.5343 | 11.10060 | 7.743 |
| 2026 Apr 13 17:57 | 2026 Apr 13 05:30:58 | 63.3182 | 0.10731 | 18.7134 | 45.0717 | 14.5343 | 11.10060 | 7.743 |
| 2026 Apr 12 17:57 | 2026 Apr 08 14:38:08 | 63.3184 | 0.10731 | 19.2319 | 45.0177 | 14.5343 | 11.10060 | 7.743 |
| 2026 Apr 11 17:57 | 2026 Apr 08 14:38:08 | 63.3184 | 0.10731 | 19.2319 | 45.0177 | 14.5343 | 11.10060 | 7.743 |
| 2026 Apr 10 17:58 | 2026 Apr 08 14:38:08 | 63.3184 | 0.10731 | 19.2319 | 45.0177 | 14.5343 | 11.10060 | 7.743 |
| 2026 Apr 09 18:01 | 2026 Apr 08 14:38:08 | 63.3184 | 0.10731 | 19.2319 | 45.0177 | 14.5343 | 11.10060 | 7.743 |